Pagrindinis puslapis
METAR-TAF:

METAR-TAF

Oro uostai :

Dakaras, Senegalas

platuma: 14-44N, ilguma: 017-30W, Aukštis: 27 m

Dabartinis oras

Ataskaita buvo paskelbta 29 minutes, ne 21:00 UTC
Vėjas 10 kt iš Šiaurės Vakarų
Temperatūra 24°C
Drėgmė 78%
Slėgis 1011 hPa
Matomumas 10 km arba daugiau
nėra debesų žemiau 1500 m ir nėra kamuolinių lietaus debesų

METAR: GOOY 302100Z 32010KT CAVOK 24/20 Q1011

Laikas: 21:29 (21:29 UTC)

Prognozė

Ataskaita buvo paskelbta 3 valandos ir 59 minutes, ne 17:30 UTC
Prognozė galioja nuo 30 metu 18 UTC su 30 metu 24 UTC
Vėjas 8 kt iš Šiaurės/Šiaurės Vakarų
Matomumas 10 km arba daugiau
nėra debesų žemiau 1500 m ir nėra kamuolinių lietaus debesų

TAF: GOOY 301730Z 3018/3024 33008KT CAVOK

Orai ataskaitas ir orų prognozės (METAR, TAF).

turimą stotys yra geltonos ir raudonos taškus žemėlapyje.

Perkelti pele per norėdami pamatyti stoties vardą.

Tada spustelėkite, norėdami matyti oro stebėjimo ir prognozės.

Norėdami pakeisti žemėlapį: spustelėkite ant žalios mygtukų su juodo kryžiaus žemyn,; žalią mygtuką su brūkšneliu, jei norite nutolinti; arba žalių rodyklių gretimoms žemėlapius.


METAR-TAF: